^^
Station Historical Data
 
Daily Summary for December 09, 2018 Units:  English    Metric   Both
« Previous Day
Next Day »
Daily Weekly Monthly Yearly Custom
  Current: High: Low: Average:
Temperature: 8.4 °F 28.3 °F 7.3 °F 17 °F
Dew Point: 6.5 °F 22.6 °F 5.5 °F 13.3 °F
Humidity: 92% 92% 73% 86%
Wind Speed: 0mph 3mph 0mph 0.1mph
Wind Gust: 0mph 9mph - -
WindCalm - - SW
Pressure: 30.32 in 30.47 in 30.32 in -
Precipitation: 0 in      
Historical Graphs
 
 
Tabular Data for December 09, 2018
Time Temperature Dew Point Pressure Wind Wind Speed Wind Gust Humidity Rainfall Rate (Hourly) solar Conditions
00:00 15.3 °F 13.4 °F 30.47 in Calm     92% 0 in 0.00 W/m2 SCT
00:05 15.2 °F 13.3 °F 30.47 in Calm     92% 0 in 0.00 W/m2 CLR
00:10 15.2 °F 13.3 °F 30.46 in Calm     92% 0 in 0.00 W/m2 CLR
00:15 15.2 °F 13.3 °F 30.46 in Calm     92% 0 in 0.00 W/m2 CLR
00:20 15.1 °F 13.2 °F 30.46 in Calm     92% 0 in 0.00 W/m2 CLR
00:25 15.1 °F 13.2 °F 30.46 in Calm     92% 0 in 0.00 W/m2 CLR
00:30 15.1 °F 13.2 °F 30.46 in Calm     92% 0 in 0.00 W/m2 CLR
00:35 15 °F 13.1 °F 30.46 in Calm     92% 0 in 0.00 W/m2 CLR
00:40 15 °F 13.1 °F 30.46 in Calm     92% 0 in 0.00 W/m2 CLR
00:45 15 °F 13.1 °F 30.45 in Calm     92% 0 in 0.00 W/m2 CLR
00:50 15.2 °F 13.3 °F 30.45 in Calm     92% 0 in 0.00 W/m2 CLR
00:55 15.2 °F 13.3 °F 30.45 in Calm     92% 0 in 0.00 W/m2 CLR
01:00 15.3 °F 13.4 °F 30.45 in Calm     92% 0 in 0.00 W/m2 CLR
01:05 15.4 °F 13.5 °F 30.45 in Calm     92% 0 in 0.00 W/m2 CLR
01:10 15.4 °F 13.5 °F 30.45 in Calm     92% 0 in 0.00 W/m2 CLR
01:15 15.4 °F 13.5 °F 30.45 in Calm     92% 0 in 0.00 W/m2 CLR
01:20 15.4 °F 13.5 °F 30.45 in Calm     92% 0 in 0.00 W/m2 CLR
01:25 15.4 °F 13.5 °F 30.45 in Calm     92% 0 in 0.00 W/m2 CLR
01:30 15.4 °F 13.5 °F 30.45 in Calm     92% 0 in 0.00 W/m2 CLR
01:35 15.4 °F 13.5 °F 30.45 in Calm     92% 0 in 0.00 W/m2 CLR
01:40 15.5 °F 13.6 °F 30.45 in Calm     92% 0 in 0.00 W/m2 CLR
01:45 15.4 °F 13.5 °F 30.45 in Calm     92% 0 in 0.00 W/m2 CLR
01:50 15.4 °F 13.5 °F 30.44 in Calm     92% 0 in 0.00 W/m2 CLR
01:55 15.4 °F 13.5 °F 30.44 in Calm     92% 0 in 0.00 W/m2 CLR
02:00 15.3 °F 13.4 °F 30.44 in Calm     92% 0 in 0.00 W/m2 CLR
02:05 15.3 °F 13.4 °F 30.44 in Calm     92% 0 in 0.00 W/m2 CLR
02:10 15.2 °F 13.3 °F 30.44 in Calm     92% 0 in 0.00 W/m2 CLR
02:15 15 °F 13.1 °F 30.44 in Calm     92% 0 in 0.00 W/m2 CLR
02:20 14.9 °F 13 °F 30.44 in Calm     92% 0 in 0.00 W/m2 CLR
02:25 14.6 °F 12.7 °F 30.44 in Calm     92% 0 in 0.00 W/m2 CLR
02:30 14.4 °F 12.5 °F 30.43 in Calm     92% 0 in 0.00 W/m2 CLR
02:35 14.2 °F 12.3 °F 30.43 in Calm     92% 0 in 0.00 W/m2 CLR
02:40 14 °F 12.1 °F 30.43 in Calm     92% 0 in 0.00 W/m2 CLR
02:45 13.8 °F 11.9 °F 30.43 in Calm     92% 0 in 0.00 W/m2 CLR
02:50 13.6 °F 11.7 °F 30.43 in Calm     92% 0 in 0.00 W/m2 CLR
02:55 13.5 °F 11.6 °F 30.43 in Calm     92% 0 in 0.00 W/m2 CLR
03:00 13.4 °F 11.5 °F 30.43 in Calm     92% 0 in 0.00 W/m2 CLR
03:05 13.2 °F 11.3 °F 30.42 in Calm     92% 0 in 0.00 W/m2 SCT
03:10 13 °F 11.1 °F 30.42 in Calm     92% 0 in 0.00 W/m2 SCT
03:15 12.8 °F 10.9 °F 30.42 in Calm     92% 0 in 0.00 W/m2 SCT
03:20 12.7 °F 10.8 °F 30.42 in Calm     92% 0 in 0.00 W/m2 SCT
03:25 12.6 °F 10.7 °F 30.41 in Calm     92% 0 in 0.00 W/m2 SCT
03:30 12.5 °F 10.6 °F 30.41 in Calm     92% 0 in 0.00 W/m2 SCT
03:35 12.3 °F 10.4 °F 30.41 in Calm     92% 0 in 0.00 W/m2 SCT
03:40 12.3 °F 10.4 °F 30.41 in Calm     92% 0 in 0.00 W/m2 SCT
03:45 12.2 °F 10.3 °F 30.41 in Calm     92% 0 in 0.00 W/m2 SCT
03:50 12 °F 10.2 °F 30.41 in Calm     92% 0 in 0.00 W/m2 SCT
03:55 11.9 °F 10 °F 30.41 in Calm     92% 0 in 0.00 W/m2 SCT
04:00 11.8 °F 9.9 °F 30.41 in Calm     92% 0 in 0.00 W/m2 SCT
04:05 11.7 °F 9.8 °F 30.41 in Calm     92% 0 in 0.00 W/m2 CLR
04:10 11.5 °F 9.6 °F 30.41 in Calm     92% 0 in 0.00 W/m2 CLR
04:15 11.2 °F 9.4 °F 30.40 in Calm     92% 0 in 0.00 W/m2 CLR
04:20 11.1 °F 9.2 °F 30.40 in Calm     92% 0 in 0.00 W/m2 CLR
04:25 11 °F 9.1 °F 30.40 in Calm     92% 0 in 0.00 W/m2 CLR
04:30 10.9 °F 9 °F 30.40 in Calm     92% 0 in 0.00 W/m2 CLR
04:35 10.8 °F 8.9 °F 30.39 in Calm     92% 0 in 0.00 W/m2 CLR
04:40 10.5 °F 8.7 °F 30.39 in Calm     92% 0 in 0.00 W/m2 CLR
04:45 10.4 °F 8.5 °F 30.39 in Calm     92% 0 in 0.00 W/m2 CLR
04:50 10.3 °F 8.4 °F 30.39 in Calm     92% 0 in 0.00 W/m2 CLR
04:55 10.1 °F 8.2 °F 30.39 in Calm     92% 0 in 0.00 W/m2 CLR
05:00 9.9 °F 8.1 °F 30.39 in Calm     92% 0 in 0.00 W/m2 CLR
05:05 9.7 °F 7.8 °F 30.39 in Calm     92% 0 in 0.00 W/m2 CLR
05:10 9.5 °F 7.6 °F 30.39 in Calm     92% 0 in 0.00 W/m2 CLR
05:15 9.3 °F 7.4 °F 30.39 in Calm     92% 0 in 0.00 W/m2 CLR
05:20 9.1 °F 7.2 °F 30.39 in Calm     92% 0 in 0.00 W/m2 CLR
05:25 9 °F 7.1 °F 30.39 in Calm     92% 0 in 0.00 W/m2 CLR
05:30 8.9 °F 7.1 °F 30.39 in Calm     92% 0 in 0.00 W/m2 CLR
05:35 8.7 °F 6.9 °F 30.39 in Calm     92% 0 in 0.00 W/m2 CLR
05:40 8.6 °F 6.8 °F 30.39 in Calm     92% 0 in 0.00 W/m2 CLR
05:45 8.5 °F 6.7 °F 30.39 in Calm     92% 0 in 0.00 W/m2 CLR
05:50 8.3 °F 6.5 °F 30.38 in Calm     92% 0 in 0.00 W/m2 CLR
05:55 8.2 °F 6.3 °F 30.38 in Calm     92% 0 in 0.00 W/m2 CLR
06:00 8 °F 6.2 °F 30.39 in Calm     92% 0 in 0.00 W/m2 CLR
06:05 7.8 °F 6 °F 30.38 in Calm     92% 0 in 0.00 W/m2 SCT
06:10 7.6 °F 5.8 °F 30.38 in Calm     92% 0 in 0.00 W/m2 SCT
06:15 7.4 °F 5.6 °F 30.38 in Calm     92% 0 in 0.00 W/m2 SCT
06:20 7.3 °F 5.5 °F 30.38 in Calm     92% 0 in 0.00 W/m2 SCT
06:25 7.3 °F 5.5 °F 30.38 in Calm     92% 0 in 0.00 W/m2 SCT
06:30 7.6 °F 5.7 °F 30.38 in Calm     92% 0 in 0.00 W/m2 SCT
06:35 8 °F 6.2 °F 30.38 in Calm     92% 0 in 0.00 W/m2 SCT
06:40 8.7 °F 6.9 °F 30.38 in Calm     92% 0 in 0.00 W/m2 SCT
06:45 9.8 °F 7.9 °F 30.38 in Calm     92% 0 in 0.00 W/m2 SCT
06:50 10.5 °F 8.6 °F 30.38 in Calm     92% 0 in 0.00 W/m2 SCT
06:55 11.1 °F 9.2 °F 30.39 in Calm     92% 0 in 0.00 W/m2 SCT
07:00 11.4 °F 9.5 °F 30.39 in Calm     92% 0 in 0.00 W/m2 SCT
07:05 11.7 °F 8.1 °F 30.39 in Calm     85% 0 in 0.00 W/m2 SCT
07:10 11.8 °F 8.2 °F 30.39 in Calm     85% 0 in 0.00 W/m2 SCT
07:15 11.8 °F 8.2 °F 30.39 in Calm     85% 0 in 0.00 W/m2 SCT
07:20 11.8 °F 8.1 °F 30.38 in Calm     85% 0 in 0.00 W/m2 SCT
07:25 11.6 °F 8 °F 30.38 in Calm     85% 0 in 0.00 W/m2 SCT
07:30 11.4 °F 7.8 °F 30.38 in Calm     85% 0 in 0.00 W/m2 SCT
07:35 11.1 °F 7.5 °F 30.38 in Calm     85% 0 in 0.00 W/m2 SCT
07:40 11 °F 7.4 °F 30.38 in Calm     85% 0 in 5.00 W/m2 SCT
07:45 10.9 °F 7.3 °F 30.38 in Calm     85% 0 in 7.00 W/m2 SCT
07:50 10.9 °F 7.3 °F 30.38 in Calm     85% 0 in 11.00 W/m2 SCT
07:55 10.9 °F 7.3 °F 30.38 in Calm     85% 0 in 14.00 W/m2 SCT
08:00 10.9 °F 7.3 °F 30.38 in Calm     85% 0 in 16.00 W/m2 SCT
08:05 10.9 °F 9 °F 30.38 in Calm     92% 0 in 19.00 W/m2 CLR
08:10 11 °F 9.1 °F 30.38 in Calm     92% 0 in 25.00 W/m2 CLR
08:15 11.2 °F 9.3 °F 30.38 in Calm     92% 0 in 26.00 W/m2 CLR
08:20 11.5 °F 9.6 °F 30.38 in Calm     92% 0 in 30.00 W/m2 CLR
08:25 11.8 °F 9.9 °F 30.38 in Calm     92% 0 in 33.00 W/m2 CLR
08:30 12.1 °F 10.2 °F 30.38 in Calm     92% 0 in 35.00 W/m2 CLR
08:35 12.6 °F 10.7 °F 30.39 in Calm     92% 0 in 46.00 W/m2 CLR
08:40 12.9 °F 11.1 °F 30.39 in Calm     92% 0 in 53.00 W/m2 CLR
08:45 13.3 °F 11.4 °F 30.39 in Calm     92% 0 in 56.00 W/m2 CLR
08:50 13.9 °F 12 °F 30.39 in Calm     92% 0 in 79.00 W/m2 CLR
08:55 14.4 °F 12.5 °F 30.39 in Calm     92% 0 in 86.00 W/m2 CLR
09:00 15 °F 13.1 °F 30.39 in Calm     92% 0 in 97.00 W/m2 CLR
09:05 16.4 °F 10.7 °F 30.40 in Calm     78% 0 in 107.00 W/m2 CLR
09:10 16.5 °F 10.8 °F 30.40 in Calm     78% 0 in 114.00 W/m2 CLR
09:15 16.5 °F 10.8 °F 30.40 in Calm     78% 0 in 137.00 W/m2 CLR
09:20 17.9 °F 12.2 °F 30.40 in Calm     78% 0 in 125.00 W/m2 CLR
09:25 18.6 °F 12.9 °F 30.40 in Calm     78% 0 in 141.00 W/m2 CLR
09:30 19.1 °F 13.4 °F 30.40 in Calm     78% 0 in 153.00 W/m2 CLR
09:35 20 °F 14.2 °F 30.40 in Calm     78% 0 in 181.00 W/m2 CLR
09:40 21.3 °F 15.5 °F 30.40 in Calm     78% 0 in 169.00 W/m2 CLR
09:45 21.4 °F 15.6 °F 30.40 in Calm     78% 0 in 149.00 W/m2 CLR
09:50 20.4 °F 14.6 °F 30.40 in Calm     78% 0 in 171.00 W/m2 CLR
09:55 20.4 °F 14.6 °F 30.40 in Calm     78% 0 in 195.00 W/m2 CLR
10:00 20.7 °F 14.9 °F 30.41 in Calm     78% 0 in 225.00 W/m2 CLR
10:05 21.2 °F 13.9 °F 30.41 in Calm     73% 0 in 204.00 W/m2 CLR
10:10 21.5 °F 14.2 °F 30.41 in Calm     73% 0 in 239.00 W/m2 CLR
10:15 21.9 °F 14.6 °F 30.41 in Calm     73% 0 in 248.00 W/m2 CLR
10:20 22.5 °F 15.1 °F 30.40 in Calm     73% 0 in 239.00 W/m2 CLR
10:25 24 °F 16.6 °F 30.40 in Calm     73% 0 in 262.00 W/m2 CLR
10:30 23.7 °F 16.3 °F 30.40 in Calm     73% 0 in 241.00 W/m2 CLR
10:35 24.1 °F 16.6 °F 30.40 in Calm     73% 0 in 246.00 W/m2 CLR
10:40 24.1 °F 16.7 °F 30.40 in Calm   3 mph 73% 0 in 287.00 W/m2 CLR
10:45 24 °F 16.6 °F 30.40 in Calm   2 mph 73% 0 in 288.00 W/m2 CLR
10:50 24.3 °F 16.9 °F 30.39 in Calm     73% 0 in 276.00 W/m2 CLR
10:55 24.7 °F 17.3 °F 30.40 in SSW 1 mph 5 mph 73% 0 in 276.00 W/m2 CLR
11:00 25 °F 17.6 °F 30.39 in Calm   3 mph 73% 0 in 269.00 W/m2 CLR
11:05 25.2 °F 19.6 °F 30.39 in SSW 1 mph 5 mph 79% 0 in 276.00 W/m2 CLR
11:10 25.5 °F 19.9 °F 30.39 in Calm   5 mph 79% 0 in 278.00 W/m2 CLR
11:15 25.6 °F 20 °F 30.39 in SSW 1 mph 6 mph 79% 0 in 279.00 W/m2 CLR
11:20 25.8 °F 20.2 °F 30.39 in Calm   2 mph 79% 0 in 285.00 W/m2 CLR
11:25 26 °F 20.4 °F 30.39 in Calm   2 mph 79% 0 in 294.00 W/m2 CLR
11:30 26.2 °F 20.6 °F 30.39 in SSW 1 mph 8 mph 79% 0 in 302.00 W/m2 CLR
11:35 26.3 °F 20.7 °F 30.39 in Calm   6 mph 79% 0 in 311.00 W/m2 CLR
11:40 26.5 °F 20.9 °F 30.38 in Calm   5 mph 79% 0 in 322.00 W/m2 CLR
11:45 27.1 °F 21.5 °F 30.39 in Calm   1 mph 79% 0 in 332.00 W/m2 CLR
11:50 27.3 °F 21.6 °F 30.39 in Calm   1 mph 79% 0 in 345.00 W/m2 CLR
11:55 27.7 °F 22 °F 30.39 in Calm     79% 0 in 353.00 W/m2 CLR
12:00 27.9 °F 22.2 °F 30.39 in SSW 1 mph 7 mph 79% 0 in 359.00 W/m2 CLR
12:05 28.3 °F 22.6 °F 30.38 in Calm   5 mph 79% 0 in 357.00 W/m2 CLR
12:10 28.2 °F 22.5 °F 30.39 in SSW 1 mph 5 mph 79% 0 in 357.00 W/m2 CLR
12:15 27.9 °F 22.2 °F 30.38 in Calm   5 mph 79% 0 in 359.00 W/m2 CLR
12:20 27.9 °F 22.2 °F 30.38 in Calm   5 mph 79% 0 in 357.00 W/m2 CLR
12:25 27.9 °F 22.2 °F 30.38 in Calm   5 mph 79% 0 in 357.00 W/m2 CLR
12:30 27.9 °F 22.2 °F 30.38 in SW 1 mph 4 mph 79% 0 in 355.00 W/m2 CLR
12:35 27.8 °F 22.2 °F 30.38 in Calm   4 mph 79% 0 in 353.00 W/m2 CLR
12:40 28.2 °F 22.5 °F 30.38 in SW 2 mph 5 mph 79% 0 in 350.00 W/m2 CLR
12:45 27.7 °F 22.1 °F 30.38 in Calm   4 mph 79% 0 in 348.00 W/m2 CLR
12:50 27.8 °F 22.1 °F 30.38 in Calm   5 mph 79% 0 in 345.00 W/m2 CLR
12:55 27.6 °F 21.9 °F 30.38 in SW 1 mph 6 mph 79% 0 in 343.00 W/m2 CLR
13:00 27.7 °F 22.1 °F 30.37 in WSW 1 mph 4 mph 79% 0 in 339.00 W/m2 CLR
13:05 28 °F 20.5 °F 30.38 in Calm   6 mph 73% 0 in 334.00 W/m2 CLR
13:10 28 °F 20.5 °F 30.37 in Calm   6 mph 73% 0 in 330.00 W/m2 CLR
13:15 27.5 °F 20 °F 30.37 in SW 1 mph 6 mph 73% 0 in 323.00 W/m2 CLR
13:20 27.3 °F 19.8 °F 30.36 in SSW 1 mph 8 mph 73% 0 in 257.00 W/m2 CLR
13:25 27 °F 19.5 °F 30.36 in SW 3 mph 9 mph 73% 0 in 269.00 W/m2 CLR
13:30 27 °F 19.5 °F 30.36 in Calm   9 mph 73% 0 in 202.00 W/m2 CLR
13:35 27 °F 19.5 °F 30.36 in SSW 1 mph 6 mph 73% 0 in 148.00 W/m2 CLR
13:40 27 °F 19.5 °F 30.36 in Calm   7 mph 73% 0 in 169.00 W/m2 CLR
13:45 27 °F 19.5 °F 30.36 in SW 3 mph 8 mph 73% 0 in 190.00 W/m2 CLR
13:50 26.9 °F 19.4 °F 30.36 in Calm   6 mph 73% 0 in 165.00 W/m2 CLR
13:55 27.1 °F 19.5 °F 30.36 in Calm   9 mph 73% 0 in 167.00 W/m2 CLR
14:00 26.9 °F 19.4 °F 30.36 in SSW 2 mph 5 mph 73% 0 in 116.00 W/m2 CLR
14:05 27.1 °F 19.6 °F 30.36 in Calm   6 mph 73% 0 in 121.00 W/m2 CLR
14:10 27 °F 19.5 °F 30.36 in Calm   8 mph 73% 0 in 93.00 W/m2 CLR
14:15 27 °F 19.5 °F 30.35 in Calm   1 mph 73% 0 in 74.00 W/m2 CLR
14:20 26.9 °F 19.4 °F 30.35 in Calm   4 mph 73% 0 in 74.00 W/m2 CLR
14:25 26.9 °F 19.4 °F 30.35 in Calm   1 mph 73% 0 in 63.00 W/m2 CLR
14:30 27 °F 19.5 °F 30.35 in SSW 2 mph 7 mph 73% 0 in 53.00 W/m2 CLR
14:35 26.7 °F 19.2 °F 30.35 in Calm   6 mph 73% 0 in 47.00 W/m2 CLR
14:40 26.7 °F 19.2 °F 30.35 in Calm   2 mph 73% 0 in 46.00 W/m2 CLR
14:45 26.6 °F 19.1 °F 30.35 in Calm   4 mph 73% 0 in 44.00 W/m2 CLR
14:50 26.6 °F 19.1 °F 30.35 in Calm   3 mph 73% 0 in 44.00 W/m2 CLR
14:55 26.5 °F 19 °F 30.35 in Calm   1 mph 73% 0 in 47.00 W/m2 CLR
15:00 26.4 °F 18.9 °F 30.35 in Calm   5 mph 73% 0 in 53.00 W/m2 CLR
15:05 26.4 °F 18.9 °F 30.35 in Calm   1 mph 73% 0 in 40.00 W/m2 CLR
15:10 26.3 °F 18.8 °F 30.35 in Calm     73% 0 in 37.00 W/m2 CLR
15:15 26.2 °F 18.7 °F 30.35 in Calm     73% 0 in 35.00 W/m2 CLR
15:20 26 °F 18.5 °F 30.35 in Calm     73% 0 in 35.00 W/m2 CLR
15:25 25.9 °F 18.4 °F 30.35 in Calm     73% 0 in 39.00 W/m2 CLR
15:30 25.8 °F 18.4 °F 30.35 in Calm     73% 0 in 32.00 W/m2 CLR
15:35 25.8 °F 18.3 °F 30.35 in Calm     73% 0 in 30.00 W/m2 CLR
15:40 25.7 °F 18.2 °F 30.35 in Calm     73% 0 in 28.00 W/m2 CLR
15:45 25.7 °F 18.2 °F 30.35 in Calm     73% 0 in 28.00 W/m2 CLR
15:50 25.4 °F 17.9 °F 30.36 in Calm     73% 0 in 25.00 W/m2 CLR
15:55 25.1 °F 17.7 °F 30.36 in Calm     73% 0 in 23.00 W/m2 CLR
16:00 25 °F 17.6 °F 30.36 in Calm     73% 0 in 19.00 W/m2 CLR
16:05 24.5 °F 18.9 °F 30.35 in Calm     79% 0 in 18.00 W/m2 CLR
16:10 24 °F 18.4 °F 30.35 in Calm     79% 0 in 14.00 W/m2 CLR
16:15 24 °F 18.5 °F 30.35 in Calm     79% 0 in 12.00 W/m2 CLR
16:20 24.2 °F 18.6 °F 30.35 in Calm     79% 0 in 11.00 W/m2 CLR
16:25 24 °F 18.4 °F 30.35 in Calm     79% 0 in 7.00 W/m2 CLR
16:30 23.5 °F 17.9 °F 30.35 in Calm     79% 0 in 5.00 W/m2 CLR
16:35 23.3 °F 17.8 °F 30.36 in Calm     79% 0 in 0.00 W/m2 CLR
16:40 23.3 °F 17.7 °F 30.36 in Calm     79% 0 in 0.00 W/m2 CLR
16:45 23.3 °F 17.7 °F 30.36 in Calm     79% 0 in 0.00 W/m2 CLR
16:50 23 °F 17.5 °F 30.36 in Calm     79% 0 in 0.00 W/m2 CLR
16:55 22.4 °F 16.9 °F 30.36 in Calm     79% 0 in 0.00 W/m2 CLR
17:00 21.1 °F 15.6 °F 30.36 in Calm     79% 0 in 0.00 W/m2 CLR
17:05 20.8 °F 17 °F 30.36 in Calm     85% 0 in 0.00 W/m2 CLR
17:10 20.2 °F 16.4 °F 30.36 in Calm     85% 0 in 0.00 W/m2 CLR
17:15 20.4 °F 16.6 °F 30.36 in Calm     85% 0 in 0.00 W/m2 CLR
17:20 20 °F 16.2 °F 30.36 in Calm     85% 0 in 0.00 W/m2 CLR
17:25 18.7 °F 14.9 °F 30.36 in Calm     85% 0 in 0.00 W/m2 CLR
17:30 17.6 °F 13.9 °F 30.36 in Calm     85% 0 in 0.00 W/m2 CLR
17:35 17.7 °F 14 °F 30.36 in Calm     85% 0 in 0.00 W/m2 CLR
17:40 17.8 °F 14.1 °F 30.36 in Calm     85% 0 in 0.00 W/m2 CLR
17:45 17.6 °F 13.9 °F 30.36 in Calm     85% 0 in 0.00 W/m2 CLR
17:50 17.3 °F 13.6 °F 30.36 in Calm     85% 0 in 0.00 W/m2 CLR
17:55 17.1 °F 13.4 °F 30.36 in Calm     85% 0 in 0.00 W/m2 CLR
18:00 17.2 °F 13.4 °F 30.35 in Calm     85% 0 in 0.00 W/m2 CLR
18:05 16.9 °F 15 °F 30.35 in Calm     92% 0 in 0.00 W/m2 CLR
18:10 16.6 °F 14.7 °F 30.35 in Calm     92% 0 in 0.00 W/m2 CLR
18:15 15.9 °F 14 °F 30.35 in Calm     92% 0 in 0.00 W/m2 CLR
18:20 15.7 °F 13.7 °F 30.35 in Calm     92% 0 in 0.00 W/m2 CLR
18:25 15 °F 13.1 °F 30.35 in Calm     92% 0 in 0.00 W/m2 CLR
18:30 15 °F 13 °F 30.35 in Calm     92% 0 in 0.00 W/m2 CLR
18:35 14.4 °F 12.5 °F 30.35 in Calm     92% 0 in 0.00 W/m2 CLR
18:40 14.4 °F 12.5 °F 30.35 in Calm     92% 0 in 0.00 W/m2 CLR
18:45 14.4 °F 12.5 °F 30.35 in Calm     92% 0 in 0.00 W/m2 CLR
18:50 14.5 °F 12.6 °F 30.35 in Calm     92% 0 in 0.00 W/m2 CLR
18:55 14.5 °F 12.6 °F 30.35 in Calm     92% 0 in 0.00 W/m2 CLR
19:00 14.3 °F 12.4 °F 30.35 in Calm     92% 0 in 0.00 W/m2 CLR
19:05 14.3 °F 12.4 °F 30.35 in Calm     92% 0 in 0.00 W/m2 CLR
19:10 13.5 °F 11.6 °F 30.35 in Calm     92% 0 in 0.00 W/m2 CLR
19:15 13.1 °F 11.2 °F 30.35 in Calm     92% 0 in 0.00 W/m2 CLR
19:20 13 °F 11.1 °F 30.36 in Calm     92% 0 in 0.00 W/m2 CLR
19:25 13.1 °F 11.2 °F 30.35 in Calm     92% 0 in 0.00 W/m2 CLR
19:30 13.1 °F 11.2 °F 30.35 in Calm     92% 0 in 0.00 W/m2 CLR
19:35 13.1 °F 11.3 °F 30.35 in Calm     92% 0 in 0.00 W/m2 CLR
19:40 12.9 °F 11 °F 30.35 in Calm     92% 0 in 0.00 W/m2 CLR
19:45 12.8 °F 10.9 °F 30.35 in Calm     92% 0 in 0.00 W/m2 CLR
19:50 12.6 °F 10.7 °F 30.35 in Calm     92% 0 in 0.00 W/m2 CLR
19:55 12.3 °F 10.4 °F 30.35 in Calm     92% 0 in 0.00 W/m2 CLR
20:00 11.6 °F 9.7 °F 30.35 in Calm     92% 0 in 0.00 W/m2 CLR
20:05 11.4 °F 9.5 °F 30.35 in Calm     92% 0 in 0.00 W/m2 SCT
20:10 11.2 °F 9.3 °F 30.35 in Calm     92% 0 in 0.00 W/m2 SCT
20:15 11.1 °F 9.2 °F 30.35 in Calm     92% 0 in 0.00 W/m2 SCT
20:20 11.4 °F 9.5 °F 30.35 in Calm     92% 0 in 0.00 W/m2 SCT
20:25 11.3 °F 9.5 °F 30.34 in Calm     92% 0 in 0.00 W/m2 SCT
20:30 11.2 °F 9.3 °F 30.34 in Calm     92% 0 in 0.00 W/m2 SCT
20:35 11 °F 9.1 °F 30.34 in Calm     92% 0 in 0.00 W/m2 SCT
20:40 10.9 °F 9 °F 30.34 in Calm     92% 0 in 0.00 W/m2 SCT
20:45 10.7 °F 8.8 °F 30.34 in Calm     92% 0 in 0.00 W/m2 SCT
20:50 10.5 °F 8.7 °F 30.34 in Calm     92% 0 in 0.00 W/m2 SCT
20:55 10.2 °F 8.3 °F 30.34 in Calm     92% 0 in 0.00 W/m2 SCT
21:00 10.2 °F 8.3 °F 30.34 in Calm     92% 0 in 0.00 W/m2 SCT
21:05 9.9 °F 8.1 °F 30.34 in Calm     92% 0 in 0.00 W/m2 BKN
21:10 10.1 °F 8.2 °F 30.34 in Calm     92% 0 in 0.00 W/m2 BKN
21:15 10.1 °F 8.2 °F 30.33 in Calm     92% 0 in 0.00 W/m2 BKN
21:20 10 °F 8.1 °F 30.33 in Calm     92% 0 in 0.00 W/m2 BKN
21:25 9.9 °F 8 °F 30.33 in Calm     92% 0 in 0.00 W/m2 BKN
21:30 9.4 °F 7.5 °F 30.33 in Calm     92% 0 in 0.00 W/m2 BKN
21:35 9 °F 7.2 °F 30.33 in Calm     92% 0 in 0.00 W/m2 BKN
21:40 9 °F 7.1 °F 30.33 in Calm     92% 0 in 0.00 W/m2 BKN
21:45 9.1 °F 7.2 °F 30.33 in Calm     92% 0 in 0.00 W/m2 BKN
21:50 9.2 °F 7.3 °F 30.32 in Calm     92% 0 in 0.00 W/m2 BKN
21:55 9.1 °F 7.2 °F 30.32 in Calm     92% 0 in 0.00 W/m2 BKN
22:00 8.8 °F 6.9 °F 30.32 in Calm     92% 0 in 0.00 W/m2 BKN
22:05 8.5 °F 6.7 °F 30.32 in Calm     92% 0 in 0.00 W/m2 OVC
22:10 8.4 °F 6.6 °F 30.32 in Calm     92% 0 in 0.00 W/m2 OVC
22:15 8.4 °F 6.5 °F 30.32 in Calm     92% 0 in 0.00 W/m2 OVC
Zumbrota Weather